Time;durP1;ratioP1;P1;durP2;ratioP2;P2;SDS_P1;SDS_P2;PMS_P1;PMS_P2;Temp;Humidity;BMP_temperature;BMP_pressure;BME280_temperature;BME280_humidity;BME280_pressure;Samples;Min_cycle;Max_cycle;Signal;HPM_P1;HPM_P2
2021/04/17 00:02:00;;;;;;;9.27;2.20;;;;;;;2.83;91.95;101441.72;4995090;28;20194;-73
2021/04/17 00:04:28;;;;;;;3.57;2.20;;;;;;;2.82;91.94;101432.28;4988445;28;20666;-74
2021/04/17 00:06:54;;;;;;;5.87;2.20;;;;;;;2.78;92.48;101433.03;4988735;28;20209;-71
2021/04/17 00:09:23;;;;;;;2.73;1.87;;;;;;;2.78;92.96;101433.03;4988552;28;20239;-74
2021/04/17 00:11:51;;;;;;;6.17;2.23;;;;;;;2.77;93.10;101424.44;4988784;28;20197;-72
2021/04/17 00:14:21;;;;;;;3.83;1.80;;;;;;;2.73;93.07;101422.66;4995589;28;20745;-71
2021/04/17 00:16:48;;;;;;;2.70;1.60;;;;;;;2.73;93.67;101420.09;4988667;28;20212;-71
2021/04/17 00:19:14;;;;;;;2.30;1.70;;;;;;;2.73;93.96;101406.34;4988613;28;20586;-71
2021/04/17 00:21:40;;;;;;;3.60;1.70;;;;;;;2.70;93.91;101412.28;5003555;28;20198;-74
2021/04/17 00:24:07;;;;;;;4.53;1.87;;;;;;;2.68;92.80;101407.97;4987683;28;20267;-74
2021/04/17 00:26:34;;;;;;;2.63;1.60;;;;;;;2.68;93.86;101402.81;4988251;28;20504;-74
2021/04/17 00:29:01;;;;;;;5.73;2.13;;;;;;;2.66;94.15;101405.38;4988424;28;20201;-71
2021/04/17 00:31:27;;;;;;;3.40;1.80;;;;;;;2.66;94.61;101405.38;4988226;28;20201;-75
2021/04/17 00:33:53;;;;;;;3.43;2.10;;;;;;;2.67;95.57;101403.66;4991536;28;20220;-74
2021/04/17 00:36:19;;;;;;;2.93;1.70;;;;;;;2.67;95.82;101393.34;4991466;28;20956;-73
2021/04/17 00:38:50;;;;;;;2.50;1.53;;;;;;;2.66;95.31;101397.63;4988316;28;20200;-71
2021/04/17 00:41:17;;;;;;;2.77;1.70;;;;;;;2.65;95.46;101398.47;5002539;28;20197;-72
2021/04/17 00:43:44;;;;;;;1.80;1.50;;;;;;;2.62;95.12;101389.00;4991647;28;20225;-74
2021/04/17 00:46:12;;;;;;;2.23;1.60;;;;;;;2.62;95.29;101396.72;4992380;28;20204;-70
2021/04/17 00:48:39;;;;;;;3.27;1.70;;;;;;;2.61;95.16;101394.97;4991705;28;20283;-73
2021/04/17 00:51:14;;;;;;;4.13;1.70;;;;;;;2.61;95.26;101382.09;5002780;28;20692;-76
2021/04/17 00:53:42;;;;;;;4.50;1.83;;;;;;;2.63;95.60;101390.69;5016483;28;20236;-72
2021/04/17 00:56:11;;;;;;;3.13;1.83;;;;;;;2.63;95.57;101388.13;4992656;28;20202;-71
2021/04/17 00:58:38;;;;;;;1.57;1.27;;;;;;;2.62;94.61;101388.09;5005615;28;20300;-71
2021/04/17 01:01:06;;;;;;;2.53;1.70;;;;;;;2.63;94.61;101388.13;4997374;28;20212;-73
2021/04/17 01:03:42;;;;;;;2.23;1.50;;;;;;;2.63;94.18;101388.13;4989794;28;20229;-71
2021/04/17 01:06:14;;;;;;;3.67;1.53;;;;;;;2.65;94.78;101386.44;4989182;28;20184;-73
2021/04/17 01:08:47;;;;;;;5.10;1.53;;;;;;;2.64;94.35;101381.28;4986859;28;20237;-70
2021/04/17 01:11:20;;;;;;;2.07;1.50;;;;;;;2.65;94.22;101378.72;4991743;28;20279;-71
2021/04/17 01:13:52;;;;;;;4.30;1.63;;;;;;;2.64;93.26;101379.56;4986938;28;20221;-73
2021/04/17 01:16:19;;;;;;;2.90;1.47;;;;;;;2.66;93.92;101379.59;4991702;28;20224;-74
2021/04/17 01:18:46;;;;;;;3.23;1.60;;;;;;;2.68;93.75;101389.94;4999803;28;20228;-70
2021/04/17 01:21:13;;;;;;;5.43;1.53;;;;;;;2.69;94.02;101383.94;4991774;28;20212;-70
2021/04/17 01:23:43;;;;;;;2.60;1.63;;;;;;;2.67;93.51;101381.31;4991201;28;20225;-71
2021/04/17 01:26:13;;;;;;;2.83;1.30;;;;;;;2.65;92.99;101389.03;4996992;28;20209;-73
2021/04/17 01:28:42;;;;;;;3.00;1.37;;;;;;;2.68;93.23;101388.22;4991080;28;20192;-73
2021/04/17 01:31:12;;;;;;;3.80;1.43;;;;;;;2.69;93.08;101382.25;4991660;28;20601;-71
2021/04/17 01:33:41;;;;;;;3.90;1.30;;;;;;;2.70;93.49;101380.53;4992180;28;20225;-73
2021/04/17 01:36:09;;;;;;;2.20;1.10;;;;;;;2.70;94.00;101370.22;4997416;28;20303;-72
2021/04/17 01:38:39;;;;;;;4.00;1.27;;;;;;;2.69;94.10;101374.53;4993019;28;20288;-71
2021/04/17 01:41:10;;;;;;;4.07;1.30;;;;;;;2.68;93.94;101372.78;4991644;28;20219;-72
2021/04/17 01:43:37;;;;;;;4.33;1.47;;;;;;;2.68;94.36;101370.19;4990316;28;20847;-70
2021/04/17 01:46:12;;;;;;;5.17;1.40;;;;;;;2.68;94.18;101374.50;4991564;28;20876;-70
2021/04/17 01:48:38;;;;;;;1.93;1.17;;;;;;;2.70;94.32;101365.09;4990023;28;20262;-74
2021/04/17 01:51:06;;;;;;;1.90;1.20;;;;;;;2.69;93.42;101371.94;4990886;28;20197;-75
2021/04/17 01:53:36;;;;;;;4.90;1.23;;;;;;;2.69;93.06;101371.06;4990619;28;20244;-78
2021/04/17 01:56:04;;;;;;;2.80;1.37;;;;;;;2.70;93.14;101370.22;4992042;28;20685;-72
2021/04/17 01:58:52;;;;;;;3.80;1.40;;;;;;;2.69;92.47;101369.38;4990557;28;20197;-75
2021/04/17 02:01:19;;;;;;;1.70;1.17;;;;;;;2.70;92.17;101365.09;4991125;28;20276;-71
2021/04/17 02:03:50;;;;;;;2.10;1.23;;;;;;;2.72;91.98;101368.53;4987514;28;20228;-74
2021/04/17 02:06:16;;;;;;;1.70;1.03;;;;;;;2.71;92.15;101365.13;4991155;28;20271;-73
2021/04/17 02:08:42;;;;;;;2.50;1.13;;;;;;;2.73;92.62;101363.44;4998338;28;20232;-76
2021/04/17 02:11:09;;;;;;;3.93;1.33;;;;;;;2.71;91.98;101364.22;4992023;28;20677;-72
2021/04/17 02:13:37;;;;;;;2.57;1.23;;;;;;;2.72;91.68;101361.69;4990384;28;20216;-72
2021/04/17 02:16:10;;;;;;;3.77;1.40;;;;;;;2.71;91.86;101359.06;4990532;28;20205;-74
2021/04/17 02:18:47;;;;;;;2.67;1.47;;;;;;;2.71;92.06;101356.50;4990850;28;20276;-71
2021/04/17 02:21:18;;;;;;;2.30;1.27;;;;;;;2.73;91.94;101360.84;4990435;28;20201;-74
2021/04/17 02:23:46;;;;;;;3.63;1.23;;;;;;;2.72;91.56;101356.53;4989090;28;20341;-70
2021/04/17 02:26:12;;;;;;;2.20;1.30;;;;;;;2.73;91.74;101360.00;4990621;28;20208;-73
2021/04/17 02:28:38;;;;;;;1.73;1.47;;;;;;;2.74;91.66;101364.28;4990229;28;20207;-72
2021/04/17 02:31:05;;;;;;;1.33;1.13;;;;;;;2.74;91.29;101359.13;4990291;28;20205;-72
2021/04/17 02:33:31;;;;;;;2.23;1.03;;;;;;;2.73;91.19;101360.00;4989948;28;20761;-70
2021/04/17 02:35:57;;;;;;;6.60;1.87;;;;;;;2.74;91.70;101356.56;4994876;28;20200;-73
2021/04/17 02:38:23;;;;;;;3.43;1.17;;;;;;;2.73;91.44;101360.00;4995149;28;20203;-71
2021/04/17 02:40:49;;;;;;;4.70;1.40;;;;;;;2.73;90.88;101360.00;4989561;28;20205;-70
2021/04/17 02:43:15;;;;;;;3.63;1.03;;;;;;;2.75;91.38;101360.88;4989727;28;20731;-70
2021/04/17 02:45:41;;;;;;;3.10;1.23;;;;;;;2.74;91.16;101354.84;4998176;28;20209;-70
2021/04/17 02:48:09;;;;;;;2.60;1.27;;;;;;;2.74;91.15;101348.84;4989964;28;20713;-74
2021/04/17 02:50:35;;;;;;;2.80;1.10;;;;;;;2.75;90.94;101348.00;4987623;28;20197;-74
2021/04/17 02:53:01;;;;;;;2.17;1.20;;;;;;;2.74;90.77;101352.28;4989825;28;20303;-76
2021/04/17 02:55:27;;;;;;;2.00;1.20;;;;;;;2.74;90.43;101347.13;4988995;28;20197;-73
2021/04/17 02:57:53;;;;;;;3.13;1.30;;;;;;;2.75;90.23;101354.00;4990555;28;20251;-73
2021/04/17 03:00:22;;;;;;;1.93;1.30;;;;;;;2.75;90.84;101353.16;4989680;28;20733;-73
2021/04/17 03:02:49;;;;;;;3.53;1.13;;;;;;;2.75;90.63;101350.59;4988186;28;20705;-70
2021/04/17 03:05:16;;;;;;;2.50;1.20;;;;;;;2.75;90.33;101343.72;4997967;28;20636;-72
2021/04/17 03:07:42;;;;;;;1.27;0.97;;;;;;;2.77;90.81;101338.59;4988762;28;20282;-74
2021/04/17 03:10:10;;;;;;;2.43;1.40;;;;;;;2.77;90.91;101338.59;4989309;28;20204;-73
2021/04/17 03:12:36;;;;;;;2.80;1.20;;;;;;;2.76;90.49;101342.88;4989496;28;20229;-76
2021/04/17 03:15:03;;;;;;;1.73;1.30;;;;;;;2.77;90.12;101342.03;4989364;28;20609;-73
2021/04/17 03:17:29;;;;;;;2.93;1.30;;;;;;;2.77;89.53;101341.16;4989346;28;20255;-73
2021/04/17 03:19:55;;;;;;;2.20;1.10;;;;;;;2.76;90.10;101340.31;4989111;28;20208;-71
2021/04/17 03:22:22;;;;;;;1.40;1.10;;;;;;;2.77;90.18;101344.59;4988639;28;20233;-72
2021/04/17 03:24:48;;;;;;;2.30;1.40;;;;;;;2.76;89.91;101335.16;5014020;28;20217;-72
2021/04/17 03:27:14;;;;;;;2.67;1.17;;;;;;;2.79;89.59;101334.34;4988021;28;20701;-73
2021/04/17 03:29:40;;;;;;;1.73;1.17;;;;;;;2.78;89.41;101338.63;4997346;28;20197;-76
2021/04/17 03:32:06;;;;;;;3.60;1.40;;;;;;;2.78;89.32;101338.63;4989501;28;20278;-74
2021/04/17 03:34:32;;;;;;;2.50;1.30;;;;;;;2.79;89.68;101335.19;4989322;28;20232;-70
2021/04/17 03:36:58;;;;;;;2.50;1.00;;;;;;;2.79;89.27;101339.47;4989909;28;20194;-71
2021/04/17 03:39:25;;;;;;;2.17;1.53;;;;;;;2.80;89.84;101342.09;4989161;28;20621;-70
2021/04/17 03:41:52;;;;;;;1.00;0.93;;;;;;;2.79;89.49;101337.75;4989101;28;20270;-76
2021/04/17 03:44:17;;;;;;;2.30;1.37;;;;;;;2.79;89.29;101337.75;4989093;28;20225;-71
2021/04/17 03:46:43;;;;;;;1.73;0.90;;;;;;;2.80;88.98;101341.22;4989127;28;20611;-71
2021/04/17 03:49:10;;;;;;;2.70;1.53;;;;;;;2.80;89.29;101339.50;4988519;28;20633;-71
2021/04/17 03:51:36;;;;;;;1.30;1.20;;;;;;;2.82;89.47;101340.41;4988072;28;20701;-74
2021/04/17 03:54:02;;;;;;;3.40;1.40;;;;;;;2.81;88.68;101337.78;4988215;28;20218;-72
2021/04/17 03:56:29;;;;;;;1.33;0.90;;;;;;;2.81;89.15;101333.53;4987642;28;20204;-71
2021/04/17 03:58:55;;;;;;;1.77;1.20;;;;;;;2.82;89.50;101332.69;4988600;28;20224;-73
2021/04/17 04:01:21;;;;;;;1.93;1.20;;;;;;;2.82;89.79;101337.81;4989065;28;20256;-73
2021/04/17 04:03:47;;;;;;;1.50;1.23;;;;;;;2.80;89.31;101338.66;4989693;28;20225;-76
2021/04/17 04:06:13;;;;;;;1.43;1.10;;;;;;;2.81;88.71;101335.22;4995606;28;20224;-76
2021/04/17 04:08:39;;;;;;;4.40;1.10;;;;;;;2.81;88.49;101341.25;4989418;28;20201;-72
2021/04/17 04:11:05;;;;;;;1.73;1.40;;;;;;;2.81;88.25;101341.25;4995491;28;20216;-70
2021/04/17 04:13:32;;;;;;;2.87;1.17;;;;;;;2.82;88.76;101331.81;4988486;28;20303;-70
2021/04/17 04:15:58;;;;;;;1.20;1.00;;;;;;;2.81;88.87;101343.84;4988907;28;20659;-73
2021/04/17 04:18:24;;;;;;;3.13;1.13;;;;;;;2.83;88.23;101342.16;4989013;28;20205;-76
2021/04/17 04:20:50;;;;;;;1.47;1.27;;;;;;;2.83;88.53;101347.31;4982135;28;20225;-75
2021/04/17 04:23:16;;;;;;;2.50;1.53;;;;;;;2.84;89.37;101346.44;4988625;28;20228;-75
2021/04/17 04:25:42;;;;;;;4.47;1.40;;;;;;;2.83;88.33;101344.72;4989995;28;20217;-75
2021/04/17 04:28:07;;;;;;;1.23;1.13;;;;;;;2.84;88.58;101349.03;4987484;28;20623;-70
2021/04/17 04:30:34;;;;;;;2.57;1.33;;;;;;;2.84;87.82;101346.44;4988408;28;20236;-72
2021/04/17 04:33:00;;;;;;;2.07;1.30;;;;;;;2.86;87.08;101359.34;4982974;28;20228;-74
2021/04/17 04:35:26;;;;;;;2.47;1.50;;;;;;;2.86;87.89;101354.19;4990468;28;20276;-71
2021/04/17 04:37:52;;;;;;;3.20;1.20;;;;;;;2.87;87.66;101357.63;4988666;28;20197;-71
2021/04/17 04:40:18;;;;;;;1.73;1.30;;;;;;;2.86;87.12;101351.63;4988983;28;20658;-73
2021/04/17 04:42:44;;;;;;;1.33;0.93;;;;;;;2.87;87.73;101355.06;4988224;28;20237;-75
2021/04/17 04:45:11;;;;;;;1.67;1.27;;;;;;;2.88;87.63;101344.78;4989279;28;20312;-73
2021/04/17 04:47:38;;;;;;;2.73;1.10;;;;;;;2.89;87.36;101345.66;4987770;28;20193;-75
2021/04/17 04:50:06;;;;;;;1.77;1.33;;;;;;;2.90;88.04;101342.25;4988173;28;20197;-71
2021/04/17 04:52:32;;;;;;;1.30;1.10;;;;;;;2.90;87.64;101337.94;4988064;28;20214;-70
2021/04/17 04:54:58;;;;;;;1.47;0.90;;;;;;;2.93;87.92;101329.41;4988168;28;20189;-71
2021/04/17 04:57:25;;;;;;;1.93;1.47;;;;;;;2.96;87.56;101322.59;4988780;28;20235;-72
2021/04/17 04:59:51;;;;;;;3.33;1.33;;;;;;;2.99;88.04;101314.03;4987133;28;20284;-73
2021/04/17 05:02:17;;;;;;;2.47;1.33;;;;;;;2.98;87.34;101299.44;4986158;28;20197;-70
2021/04/17 05:04:43;;;;;;;1.93;1.00;;;;;;;3.01;87.47;101310.66;4987484;28;20205;-72
2021/04/17 05:07:10;;;;;;;1.10;1.00;;;;;;;3.04;87.98;101317.56;4988899;28;20198;-71
2021/04/17 05:09:36;;;;;;;4.60;1.40;;;;;;;3.06;86.82;101320.16;4987853;28;20618;-71
2021/04/17 05:12:02;;;;;;;3.37;1.10;;;;;;;3.07;86.08;101324.50;4987745;28;20289;-73
2021/04/17 05:14:28;;;;;;;1.37;1.17;;;;;;;3.10;85.87;101327.97;4986545;28;20216;-69
2021/04/17 05:16:54;;;;;;;2.07;1.20;;;;;;;3.12;85.95;101330.59;4987775;28;20288;-72
2021/04/17 05:19:20;;;;;;;2.27;1.23;;;;;;;3.16;86.71;101332.34;4989802;28;20194;-70
2021/04/17 05:21:47;;;;;;;5.60;3.00;;;;;;;3.18;85.17;101334.13;4991060;28;20221;-70
2021/04/17 05:24:13;;;;;;;2.43;1.60;;;;;;;3.23;85.58;101324.72;4991132;28;20300;-70
2021/04/17 05:26:39;;;;;;;1.33;1.20;;;;;;;3.27;84.93;101332.50;4990721;28;20197;-72
2021/04/17 05:29:05;;;;;;;2.83;1.60;;;;;;;3.31;85.47;101331.75;4991203;28;20197;-70
2021/04/17 05:31:31;;;;;;;1.53;1.20;;;;;;;3.34;86.07;101327.50;4991194;28;20259;-71
2021/04/17 05:33:57;;;;;;;3.30;1.50;;;;;;;3.37;85.42;101330.09;4991113;28;20239;-72
2021/04/17 05:36:24;;;;;;;2.67;1.20;;;;;;;3.39;84.96;101331.00;4990934;28;20284;-70
2021/04/17 05:38:52;;;;;;;1.83;1.10;;;;;;;3.45;85.51;101334.50;4995659;28;20212;-73
2021/04/17 05:41:18;;;;;;;4.20;1.37;;;;;;;3.49;85.78;101338.88;4992864;28;20232;-77
2021/04/17 05:43:44;;;;;;;1.33;1.17;;;;;;;3.53;85.91;101336.34;4990004;28;20233;-74
2021/04/17 05:46:10;;;;;;;4.00;1.27;;;;;;;3.55;85.85;101334.69;4990706;28;20642;-78
2021/04/17 05:48:36;;;;;;;1.40;1.30;;;;;;;3.58;85.24;101332.13;4990589;28;20546;-74
2021/04/17 05:51:03;;;;;;;2.47;1.30;;;;;;;3.63;85.84;101329.59;4989288;28;20704;-71
2021/04/17 05:53:29;;;;;;;2.67;1.10;;;;;;;3.66;85.42;101334.81;4997955;28;20224;-75
2021/04/17 05:55:56;;;;;;;2.20;1.20;;;;;;;3.74;85.78;101332.34;4994750;28;20239;-71
2021/04/17 05:58:22;;;;;;;4.07;1.50;;;;;;;3.77;84.50;101332.38;5003612;28;20268;-73
2021/04/17 06:00:47;;;;;;;1.40;1.20;;;;;;;3.81;84.03;101336.72;4989842;28;20206;-74
2021/04/17 06:03:13;;;;;;;3.43;1.50;;;;;;;3.89;83.23;101327.38;4989826;28;20232;-74
2021/04/17 06:05:39;;;;;;;2.47;1.43;;;;;;;4.05;84.88;101337.91;4992419;28;20689;-71
2021/04/17 06:08:06;;;;;;;3.50;1.40;;;;;;;4.21;85.34;101333.78;4996473;28;20769;-72
2021/04/17 06:10:32;;;;;;;2.57;1.90;;;;;;;4.26;81.85;101339.88;4993240;28;20601;-72
2021/04/17 06:12:59;;;;;;;3.07;1.50;;;;;;;4.33;81.81;101341.66;4990702;28;20245;-74
2021/04/17 06:15:25;;;;;;;1.87;1.53;;;;;;;4.39;82.08;101338.28;4997383;28;20213;-75
2021/04/17 06:17:51;;;;;;;2.03;1.47;;;;;;;4.36;81.24;101336.50;4990415;28;20251;-71
2021/04/17 06:20:17;;;;;;;3.43;1.40;;;;;;;4.34;81.38;101336.50;4991421;28;20285;-72
2021/04/17 06:22:43;;;;;;;2.13;1.50;;;;;;;4.31;80.46;101327.84;4989100;28;20220;-70
2021/04/17 06:25:11;;;;;;;2.23;1.50;;;;;;;4.32;80.28;101345.06;4989404;28;20213;-70
2021/04/17 06:27:37;;;;;;;3.07;1.83;;;;;;;4.34;79.25;101341.69;4989768;28;20297;-71
2021/04/17 06:30:05;;;;;;;4.23;1.40;;;;;;;4.39;79.60;101339.13;4989249;28;20224;-74
2021/04/17 06:32:31;;;;;;;2.57;1.70;;;;;;;4.45;79.88;101331.47;4996227;28;20233;-74
2021/04/17 06:34:58;;;;;;;3.43;1.70;;;;;;;4.47;79.24;101332.34;4993104;28;20200;-75
2021/04/17 06:37:24;;;;;;;2.87;1.50;;;;;;;4.53;78.23;101342.72;4989757;28;20228;-73
2021/04/17 06:39:50;;;;;;;3.77;1.37;;;;;;;4.57;78.64;101342.75;4984063;28;20726;-72
2021/04/17 06:42:20;;;;;;;2.30;1.30;;;;;;;4.61;78.68;101340.22;4988647;28;20201;-74
2021/04/17 06:44:46;;;;;;;3.93;1.40;;;;;;;4.64;78.01;101347.13;4991800;28;20267;-72
2021/04/17 06:47:15;;;;;;;2.90;2.00;;;;;;;4.66;77.67;101345.41;4988527;28;20294;-72
2021/04/17 06:49:42;;;;;;;3.13;2.13;;;;;;;4.67;77.68;101350.59;4988958;28;20281;-71
2021/04/17 06:52:10;;;;;;;2.37;1.60;;;;;;;4.66;77.37;101348.88;4988325;28;20205;-73
2021/04/17 06:54:37;;;;;;;2.73;1.50;;;;;;;4.64;77.24;101349.72;4987892;28;20595;-74
2021/04/17 06:57:03;;;;;;;2.60;1.70;;;;;;;4.71;78.59;101346.34;4988919;28;20193;-72
2021/04/17 06:59:30;;;;;;;2.80;1.47;;;;;;;4.66;76.12;101351.47;4986908;28;20275;-73
2021/04/17 07:01:57;;;;;;;1.83;1.20;;;;;;;4.70;78.06;101349.78;4992949;28;20274;-71
2021/04/17 07:04:24;;;;;;;4.70;1.57;;;;;;;4.65;76.54;101359.22;4992039;28;20225;-71
2021/04/17 07:06:50;;;;;;;3.20;1.70;;;;;;;4.61;76.59;101363.47;4987950;28;20959;-70
2021/04/17 07:09:16;;;;;;;2.80;1.27;;;;;;;4.67;77.77;101362.66;4988911;28;20232;-70
2021/04/17 07:11:42;;;;;;;3.23;1.53;;;;;;;4.71;77.32;101360.13;4988770;28;20625;-71
2021/04/17 07:14:10;;;;;;;4.10;1.93;;;;;;;4.71;77.78;101365.31;4988751;28;20301;-71
2021/04/17 07:16:59;;;;;;;2.93;1.77;;;;;;;4.72;77.41;101361.00;4989110;28;20674;-72
2021/04/17 07:19:45;;;;;;;4.03;1.73;;;;;;;4.74;76.92;101357.56;4986192;28;20588;-72
2021/04/17 07:22:19;;;;;;;7.20;2.00;;;;;;;4.77;76.76;101355.84;4994975;28;20723;-70
2021/04/17 07:24:46;;;;;;;3.27;1.60;;;;;;;4.81;77.31;101360.22;4989408;28;20348;-70
2021/04/17 07:27:31;;;;;;;4.10;2.10;;;;;;;4.83;76.73;101359.38;4993883;28;20404;-72
2021/04/17 07:29:58;;;;;;;5.40;1.90;;;;;;;4.84;76.79;101360.25;4986622;28;20293;-72
2021/04/17 07:32:24;;;;;;;4.73;2.00;;;;;;;4.83;76.81;101355.94;4987895;28;20213;-78
2021/04/17 07:35:13;;;;;;;4.30;2.20;;;;;;;4.84;76.63;101347.34;4988200;28;20251;-74
2021/04/17 07:37:41;;;;;;;4.00;2.03;;;;;;;4.84;76.84;101349.91;4981119;28;20807;-73
2021/04/17 07:40:20;;;;;;;5.13;2.23;;;;;;;4.83;75.78;101354.19;4988300;28;20208;-72
2021/04/17 07:42:48;;;;;;;5.00;2.17;;;;;;;4.87;76.51;101355.09;4996897;28;20228;-72
2021/04/17 07:45:19;;;;;;;4.07;2.03;;;;;;;4.98;76.87;101358.66;4988381;28;20436;-72
2021/04/17 07:47:46;;;;;;;4.80;1.80;;;;;;;5.02;75.82;101360.41;4988428;28;20288;-72
2021/04/17 07:50:14;;;;;;;4.83;2.03;;;;;;;5.00;75.69;101351.78;4987946;28;20196;-73
2021/04/17 07:52:40;;;;;;;4.03;2.10;;;;;;;5.06;75.41;101351.81;4987346;28;20229;-73
2021/04/17 07:55:08;;;;;;;4.47;2.40;;;;;;;5.17;76.71;101349.34;4988476;28;20213;-73
2021/04/17 07:57:37;;;;;;;4.57;1.90;;;;;;;5.21;75.56;101352.81;4994844;28;20201;-71
2021/04/17 08:00:04;;;;;;;8.70;3.67;;;;;;;5.22;75.00;101360.53;4993323;28;20232;-72
2021/04/17 08:02:36;;;;;;;10.10;4.90;;;;;;;5.31;75.10;101372.69;4986515;28;20666;-71
2021/04/17 08:05:03;;;;;;;5.93;3.03;;;;;;;5.30;74.92;101365.78;4987569;28;20216;-73
2021/04/17 08:07:32;;;;;;;10.03;3.73;;;;;;;5.31;74.98;101376.16;4990834;28;20193;-74
2021/04/17 08:10:00;;;;;;;5.77;3.23;;;;;;;5.40;75.40;101379.63;4990324;28;20473;-70
2021/04/17 08:12:38;;;;;;;4.70;2.90;;;;;;;5.42;74.68;101385.72;4987182;28;20273;-70
2021/04/17 08:15:06;;;;;;;9.07;3.40;;;;;;;5.37;75.38;101385.66;4986693;28;20221;-75
2021/04/17 08:17:32;;;;;;;5.67;2.93;;;;;;;5.32;74.64;101383.03;4987691;28;20197;-76
2021/04/17 08:19:59;;;;;;;6.87;3.20;;;;;;;5.28;75.08;101383.88;4987889;28;20209;-75
2021/04/17 08:22:26;;;;;;;8.93;3.20;;;;;;;5.33;75.49;101378.75;4987284;28;20220;-74
2021/04/17 08:24:54;;;;;;;5.17;2.70;;;;;;;5.34;75.46;101380.47;4994298;28;20209;-73
2021/04/17 08:27:20;;;;;;;6.17;3.43;;;;;;;5.47;75.78;101382.31;4986895;28;20200;-74
2021/04/17 08:29:49;;;;;;;8.40;3.53;;;;;;;5.42;74.71;101386.56;4986137;28;20240;-71
2021/04/17 08:32:26;;;;;;;6.47;3.57;;;;;;;5.51;75.43;101385.78;4987828;28;20201;-71
2021/04/17 08:35:00;;;;;;;8.07;4.73;;;;;;;5.54;75.78;101380.63;4986982;28;20221;-76
2021/04/17 08:37:27;;;;;;;9.20;4.73;;;;;;;5.55;74.85;101384.06;4987481;28;20204;-72
2021/04/17 08:39:54;;;;;;;10.17;5.03;;;;;;;5.45;74.88;101380.53;4987550;28;20205;-72
2021/04/17 08:42:39;;;;;;;12.20;5.70;;;;;;;5.43;75.21;101385.69;4985611;28;20210;-72
2021/04/17 08:45:11;;;;;;;7.50;4.87;;;;;;;5.38;75.45;101386.53;4982316;28;20225;-72
2021/04/17 08:47:46;;;;;;;10.17;5.30;;;;;;;5.54;75.30;101385.81;4984689;28;20193;-72
2021/04/17 08:50:27;;;;;;;9.20;4.50;;;;;;;5.65;75.45;101383.28;4985075;28;20205;-72
2021/04/17 08:53:02;;;;;;;7.80;4.90;;;;;;;5.75;74.12;101394.53;4985030;28;20213;-72
2021/04/17 08:55:30;;;;;;;10.03;4.47;;;;;;;5.89;74.64;101390.31;4987879;28;20284;-72
2021/04/17 08:58:14;;;;;;;7.23;4.60;;;;;;;5.92;74.10;101390.31;4988899;28;20197;-72
2021/04/17 09:00:43;;;;;;;10.03;5.73;;;;;;;5.81;73.87;101400.63;4982505;28;20197;-72
2021/04/17 09:03:09;;;;;;;10.13;6.37;;;;;;;5.77;74.27;101392.81;4984929;28;20247;-72
2021/04/17 09:05:44;;;;;;;15.27;7.23;;;;;;;5.84;73.96;101405.81;4981047;28;20225;-72
2021/04/17 09:08:12;;;;;;;10.27;6.93;;;;;;;5.98;74.39;101387.81;4986136;28;20735;-72
2021/04/17 09:10:39;;;;;;;14.90;7.53;;;;;;;6.03;74.24;101393.88;4984676;28;20201;-72
2021/04/17 09:13:33;;;;;;;13.67;8.00;;;;;;;6.03;73.59;101390.41;4986584;28;20209;-72
2021/04/17 09:16:04;;;;;;;14.20;8.70;;;;;;;6.06;73.07;101395.59;4985818;28;20208;-72
2021/04/17 09:18:44;;;;;;;16.10;8.30;;;;;;;6.13;74.02;101397.38;4987921;28;20240;-72
2021/04/17 09:21:35;;;;;;;14.57;8.37;;;;;;;6.19;73.91;101400.00;4986307;28;20208;-72
2021/04/17 09:24:02;;;;;;;14.67;8.07;;;;;;;6.34;74.06;101380.19;4986543;28;20766;-72
2021/04/17 09:26:42;;;;;;;16.33;9.13;;;;;;;6.57;73.90;101386.28;4987318;28;20205;-72
2021/04/17 09:29:22;;;;;;;14.40;8.50;;;;;;;6.60;72.36;101386.31;4988013;28;20248;-72
2021/04/17 09:31:50;;;;;;;11.57;7.60;;;;;;;6.61;71.99;101388.06;4985957;28;20948;-72
2021/04/17 09:34:17;;;;;;;13.90;8.10;;;;;;;6.78;71.65;101385.47;4981906;28;20263;-72
2021/04/17 09:36:45;;;;;;;12.67;8.17;;;;;;;6.87;69.99;101386.38;4987618;28;20256;-72
2021/04/17 09:39:28;;;;;;;13.87;8.37;;;;;;;6.96;70.24;101383.78;4989861;28;20202;-72
2021/04/17 09:41:57;;;;;;;15.87;8.73;;;;;;;7.03;69.70;101382.91;4990139;28;20204;-72
2021/04/17 09:44:23;;;;;;;12.07;8.50;;;;;;;7.20;69.11;101386.38;4988410;28;20249;-72
2021/04/17 09:47:05;;;;;;;13.67;7.50;;;;;;;7.36;70.09;101386.38;4987958;28;20726;-72
2021/04/17 09:49:39;;;;;;;14.70;8.60;;;;;;;7.35;69.09;101392.41;4988734;28;20215;-72
2021/04/17 09:52:06;;;;;;;10.63;7.90;;;;;;;7.42;69.42;101391.53;4987970;28;20297;-72
2021/04/17 09:54:33;;;;;;;11.53;8.13;;;;;;;7.67;69.99;101387.22;4985496;28;20223;-72
2021/04/17 09:57:04;;;;;;;12.00;8.20;;;;;;;7.75;69.03;101392.38;4988533;28;20196;-72
2021/04/17 09:59:30;;;;;;;12.73;8.63;;;;;;;7.92;69.99;101379.34;4987577;28;20203;-72
2021/04/17 10:01:58;;;;;;;11.80;7.87;;;;;;;7.91;69.88;101370.69;4974600;28;20196;-72
2021/04/17 10:04:44;;;;;;;14.80;7.97;;;;;;;7.69;67.91;101384.63;4985380;28;20258;-72
2021/04/17 10:07:10;;;;;;;9.30;6.83;;;;;;;7.62;68.33;101383.75;4984869;28;20752;-72
2021/04/17 10:09:36;;;;;;;7.97;7.03;;;;;;;7.56;69.08;101373.38;4983873;28;20296;-72
2021/04/17 10:12:06;;;;;;;11.33;7.30;;;;;;;7.62;68.52;101370.78;4982357;28;20224;-72
2021/04/17 10:14:32;;;;;;;9.70;7.03;;;;;;;7.68;68.09;101372.47;4987783;28;20793;-73
2021/04/17 10:16:58;;;;;;;10.43;6.80;;;;;;;7.72;68.82;101367.28;4983633;28;20959;-72
2021/04/17 10:19:25;;;;;;;9.93;7.17;;;;;;;7.75;67.64;101369.00;4985124;28;20219;-72
2021/04/17 10:21:56;;;;;;;12.17;7.53;;;;;;;7.95;67.63;101361.19;4981926;28;20691;-72
2021/04/17 10:24:24;;;;;;;11.93;7.07;;;;;;;8.00;67.17;101366.34;4981173;28;20316;-72
2021/04/17 10:26:59;;;;;;;10.67;7.47;;;;;;;8.15;68.25;101348.94;4985136;28;20498;-72
2021/04/17 10:29:37;;;;;;;9.17;6.77;;;;;;;8.53;67.86;101357.44;4987195;28;20231;-72
2021/04/17 10:32:05;;;;;;;11.73;6.60;;;;;;;8.58;65.56;101362.63;4985207;28;20200;-72
2021/04/17 10:34:32;;;;;;;11.83;6.93;;;;;;;8.60;67.62;101348.75;4982409;28;20591;-72
2021/04/17 10:37:01;;;;;;;11.23;6.83;;;;;;;8.65;66.58;101352.19;4984051;28;20203;-73
2021/04/17 10:39:28;;;;;;;13.57;7.30;;;;;;;8.94;67.39;101351.09;4981797;28;20201;-72
2021/04/17 10:41:59;;;;;;;10.97;6.93;;;;;;;9.05;64.61;101353.63;5006469;28;20793;-73
2021/04/17 10:44:25;;;;;;;9.60;6.80;;;;;;;9.20;66.88;101342.22;4985303;28;20660;-72
2021/04/17 10:46:52;;;;;;;12.10;6.40;;;;;;;9.48;65.25;101351.50;4985734;28;20229;-72
2021/04/17 10:49:29;;;;;;;10.57;7.03;;;;;;;9.68;63.12;101346.97;4983889;28;20271;-73
2021/04/17 10:51:56;;;;;;;10.40;6.53;;;;;;;9.64;63.00;101341.78;4983669;28;20205;-73
2021/04/17 10:54:23;;;;;;;9.63;6.87;;;;;;;9.99;63.79;101342.25;4983882;28;20234;-72
2021/04/17 10:57:00;;;;;;;9.17;6.67;;;;;;;10.22;62.31;101341.97;4986478;28;20279;-72
2021/04/17 10:59:26;;;;;;;9.60;6.80;;;;;;;10.34;63.68;101336.63;4985726;28;20203;-73
2021/04/17 11:01:53;;;;;;;9.87;6.07;;;;;;;10.18;61.51;101340.28;4985897;28;20202;-72
2021/04/17 11:04:20;;;;;;;7.93;5.50;;;;;;;10.07;61.27;101340.41;4988345;28;20227;-72
2021/04/17 11:06:48;;;;;;;7.00;5.20;;;;;;;10.19;60.84;101345.47;4986523;28;20234;-72
2021/04/17 11:09:16;;;;;;;6.57;5.47;;;;;;;10.05;60.94;101344.78;4987273;28;20196;-73
2021/04/17 11:11:54;;;;;;;5.57;4.73;;;;;;;10.15;60.64;101343.78;4983951;28;20206;-73
2021/04/17 11:14:23;;;;;;;6.67;5.43;;;;;;;10.20;61.69;101342.00;4985543;28;20226;-73
2021/04/17 11:16:51;;;;;;;9.33;5.30;;;;;;;10.12;59.27;101345.56;4985090;28;20608;-73
2021/04/17 11:19:26;;;;;;;7.63;5.20;;;;;;;10.44;61.69;101337.34;4985179;28;20208;-73
2021/04/17 11:22:06;;;;;;;7.53;5.37;;;;;;;10.64;62.51;101334.47;4986980;28;20543;-73
2021/04/17 11:24:32;;;;;;;8.97;5.10;;;;;;;10.68;60.43;101337.88;4983645;28;20547;-73
2021/04/17 11:26:58;;;;;;;8.90;5.93;;;;;;;10.73;61.63;101333.44;4981165;28;20207;-73
2021/04/17 11:29:24;;;;;;;7.87;5.97;;;;;;;10.70;61.98;101328.28;4984442;28;20226;-73
2021/04/17 11:31:50;;;;;;;7.70;5.90;;;;;;;10.53;61.13;101331.13;4979906;28;20203;-73
2021/04/17 11:34:17;;;;;;;8.47;5.70;;;;;;;10.72;63.81;101324.75;4998058;28;20216;-73
2021/04/17 11:36:44;;;;;;;11.10;6.00;;;;;;;10.80;61.62;101327.25;4986522;28;20219;-73
2021/04/17 11:39:10;;;;;;;8.97;6.03;;;;;;;10.78;61.09;101331.63;4991598;28;20192;-73